This demonstration page uses our WeatherBlox Daily Observations layout. Learn more.

36.17497, -115.13722

Hourly Observations for August 5, 2018

Temp ( °F °C ) Dew Point ( °F °C ) Humidity (%) Winds ( mph kmh ) Pressure ( in mb ) Visibility ( mi km ) Precip ( " mm )
12:53 am 00:53 Clear 93 33.9 26 -3.3 9 9 S 10 17 29.69 1006 10 16.0934 0 0
1:53 am 01:53 Clear 92 33.3 26 -3.3 9 9 SSW 13 20 29.7 1006 10 16.0934 0 0
2:53 am 02:53 Clear 89 31.7 28 -2.2 11 11 SSW 5 7 29.7 1006 10 16.0934 0 0
3:53 am 03:53 Clear 88 31.1 28 -2.2 11 11 SSW 12 19 29.72 1006 10 16.0934 0 0
4:53 am 04:53 Clear 87 30.6 28 -2.2 12 12 W 6 9 29.73 1007 10 16.0934 0 0
5:53 am 05:53 Sunny 81 27.2 31 -0.6 16 16 NNW 5 7 29.75 1008 10 16.0934 0 0
6:53 am 06:53 Sunny 82 27.8 29 -1.7 14 14 NNW 5 7 29.76 1008 10 16.0934 0 0
7:53 am 07:53 Sunny 86 30 27 -2.8 12 12 Calm 29.79 1009 10 16.0934 0 0
8:53 am 08:53 Sunny 91 32.8 26 -3.3 9 9 VRB 5 7 29.8 1009 7 11.26538 0 0
9:53 am 09:53 Sunny 94 34.4 27 -2.8 9 9 W 6 9 29.8 1009 9 14.48406 0 0
10:53 am 10:53 Sunny 97 36.1 27 -2.8 8 8 Calm 29.8 1009 9 14.48406 0 0
11:53 am 11:53 Sunny 100 37.8 25 -3.9 7 7 VRB 3 6 29.79 1009 10 16.0934 0 0
12:53 pm 12:53 Sunny 102 38.9 25 -3.9 6 6 Calm 29.78 1009 10 16.0934 0 0
1:53 pm 13:53 Sunny 103 39.4 25 -3.9 6 6 S 5 7 29.76 1008 10 16.0934 0 0
2:53 pm 14:53 Sunny 105 40.6 25 -3.9 6 6 S 10 17 29.74 1007 10 16.0934 0 0
3:53 pm 15:53 Sunny 106 41.1 25 -3.9 6 6 VRB 7 11 29.72 1006 10 16.0934 0 0
4:53 pm 16:53 Sunny 107 41.7 23 -5 5 5 SSE 13 20 29.69 1005 10 16.0934 0 0
5:53 pm 17:53 Sunny 106 41.1 21 -6.1 5 5 SSW 13 20 29.7 1006 10 16.0934 0 0
6:53 pm 18:53 Sunny 104 40 22 -5.6 5 5 SW 15 24 29.71 1006 10 16.0934 0 0
7:53 pm 19:53 Clear 101 38.3 20 -6.7 5 5 SW 12 19 29.72 1007 10 16.0934 0 0
8:53 pm 20:53 Clear 99 37.2 22 -5.6 6 6 W 12 19 29.74 1007 10 16.0934 0 0
9:53 pm 21:53 Clear 97 36.1 23 -5 7 7 W 8 13 29.75 1007 10 16.0934 0 0
10:53 pm 22:53 Clear 96 35.6 23 -5 7 7 Calm 29.75 1008 10 16.0934 0 0
11:53 pm 23:53 Clear 92 33.3 26 -3.3 9 9 Calm 29.77 1008 10 16.0934 0 0

Powered by AerisWeather